sensor_id;sensor_type;location;lat;lon;timestamp;pressure;altitude;pressure_sealevel;temperature;humidity
59272;BME280;45043;51.068;7.026;2022-11-20T00:01:46;100065.75;;;1.82;52.76
59272;BME280;45043;51.068;7.026;2022-11-20T00:04:47;100060.38;;;1.84;52.43
59272;BME280;45043;51.068;7.026;2022-11-20T00:07:47;100055.97;;;1.84;52.52
59272;BME280;45043;51.068;7.026;2022-11-20T00:10:47;100051.31;;;1.78;52.50
59272;BME280;45043;51.068;7.026;2022-11-20T00:13:50;100055.97;;;1.84;52.72
59272;BME280;45043;51.068;7.026;2022-11-20T00:16:51;100064.34;;;1.88;52.92
59272;BME280;45043;51.068;7.026;2022-11-20T00:19:51;100058.81;;;1.91;52.72
59272;BME280;45043;51.068;7.026;2022-11-20T00:22:52;100058.00;;;1.90;52.73
59272;BME280;45043;51.068;7.026;2022-11-20T00:25:53;100054.69;;;1.88;52.28
59272;BME280;45043;51.068;7.026;2022-11-20T00:28:58;100051.25;;;1.88;52.41
59272;BME280;45043;51.068;7.026;2022-11-20T00:31:58;100047.28;;;1.84;52.48
59272;BME280;45043;51.068;7.026;2022-11-20T00:34:59;100040.69;;;1.79;52.37
59272;BME280;45043;51.068;7.026;2022-11-20T00:37:59;100055.28;;;1.82;52.81
59272;BME280;45043;51.068;7.026;2022-11-20T00:41:01;100059.03;;;1.79;52.55
59272;BME280;45043;51.068;7.026;2022-11-20T00:44:02;100061.13;;;1.76;52.53
59272;BME280;45043;51.068;7.026;2022-11-20T00:47:02;100057.16;;;1.72;52.53
59272;BME280;45043;51.068;7.026;2022-11-20T00:50:03;100061.41;;;1.55;52.82
59272;BME280;45043;51.068;7.026;2022-11-20T00:53:04;100064.91;;;1.46;52.63
59272;BME280;45043;51.068;7.026;2022-11-20T00:56:07;100060.50;;;1.46;52.97
59272;BME280;45043;51.068;7.026;2022-11-20T00:59:08;100050.69;;;1.48;52.96
59272;BME280;45043;51.068;7.026;2022-11-20T01:02:09;100055.78;;;1.50;52.93
59272;BME280;45043;51.068;7.026;2022-11-20T01:05:09;100048.91;;;1.49;52.33
59272;BME280;45043;51.068;7.026;2022-11-20T01:08:10;100040.81;;;1.42;52.85
59272;BME280;45043;51.068;7.026;2022-11-20T01:11:13;100042.31;;;1.45;52.50
59272;BME280;45043;51.068;7.026;2022-11-20T01:14:16;100042.72;;;1.50;52.78
59272;BME280;45043;51.068;7.026;2022-11-20T01:17:17;100048.47;;;1.53;52.53
59272;BME280;45043;51.068;7.026;2022-11-20T01:20:17;100034.41;;;1.54;52.28
59272;BME280;45043;51.068;7.026;2022-11-20T01:23:18;100031.31;;;1.41;52.77
59272;BME280;45043;51.068;7.026;2022-11-20T01:26:24;100032.28;;;1.40;52.88
59272;BME280;45043;51.068;7.026;2022-11-20T01:29:25;100043.28;;;1.44;53.16
59272;BME280;45043;51.068;7.026;2022-11-20T01:32:25;100037.91;;;1.45;53.03
59272;BME280;45043;51.068;7.026;2022-11-20T01:35:25;100041.88;;;1.49;52.64
59272;BME280;45043;51.068;7.026;2022-11-20T01:38:26;100031.00;;;1.44;52.64
59272;BME280;45043;51.068;7.026;2022-11-20T01:41:28;100037.31;;;1.51;52.54
59272;BME280;45043;51.068;7.026;2022-11-20T01:44:54;100031.25;;;1.51;52.91
59272;BME280;45043;51.068;7.026;2022-11-20T01:47:55;100037.47;;;1.50;52.88
59272;BME280;45043;51.068;7.026;2022-11-20T01:50:57;100030.72;;;1.47;52.85
59272;BME280;45043;51.068;7.026;2022-11-20T01:54:00;100029.38;;;1.43;52.67
59272;BME280;45043;51.068;7.026;2022-11-20T01:57:03;100029.09;;;1.46;53.33
59272;BME280;45043;51.068;7.026;2022-11-20T02:00:11;100026.19;;;1.49;52.85
59272;BME280;45043;51.068;7.026;2022-11-20T02:03:16;100029.75;;;1.48;53.56
59272;BME280;45043;51.068;7.026;2022-11-20T02:06:25;100028.41;;;1.44;53.22
59272;BME280;45043;51.068;7.026;2022-11-20T02:09:27;100029.22;;;1.45;53.68
59272;BME280;45043;51.068;7.026;2022-11-20T02:12:27;100030.44;;;1.50;53.68
59272;BME280;45043;51.068;7.026;2022-11-20T02:15:47;100024.63;;;1.57;52.94
59272;BME280;45043;51.068;7.026;2022-11-20T02:18:48;100029.53;;;1.60;53.29
59272;BME280;45043;51.068;7.026;2022-11-20T02:25:02;100021.00;;;1.58;52.83
59272;BME280;45043;51.068;7.026;2022-11-20T02:28:04;100014.16;;;1.57;53.05
59272;BME280;45043;51.068;7.026;2022-11-20T02:31:05;100005.59;;;1.54;53.22
59272;BME280;45043;51.068;7.026;2022-11-20T02:34:06;100003.66;;;1.57;53.39
59272;BME280;45043;51.068;7.026;2022-11-20T02:37:07;99998.78;;;1.62;53.19
59272;BME280;45043;51.068;7.026;2022-11-20T02:40:08;99993.56;;;1.62;53.36
59272;BME280;45043;51.068;7.026;2022-11-20T02:43:09;100001.41;;;1.62;53.26
59272;BME280;45043;51.068;7.026;2022-11-20T02:46:09;99987.63;;;1.60;53.42
59272;BME280;45043;51.068;7.026;2022-11-20T02:49:10;99984.66;;;1.54;53.38
59272;BME280;45043;51.068;7.026;2022-11-20T02:52:10;99985.88;;;1.60;53.69
59272;BME280;45043;51.068;7.026;2022-11-20T02:55:10;99998.13;;;1.60;53.51
59272;BME280;45043;51.068;7.026;2022-11-20T02:58:11;99982.72;;;1.57;53.22
59272;BME280;45043;51.068;7.026;2022-11-20T03:01:11;99976.97;;;1.53;53.24
59272;BME280;45043;51.068;7.026;2022-11-20T03:04:12;99975.47;;;1.50;53.34
59272;BME280;45043;51.068;7.026;2022-11-20T03:07:12;99965.97;;;1.49;53.43
59272;BME280;45043;51.068;7.026;2022-11-20T03:10:12;99969.94;;;1.53;53.07
59272;BME280;45043;51.068;7.026;2022-11-20T03:13:13;99960.22;;;1.46;53.50
59272;BME280;45043;51.068;7.026;2022-11-20T03:16:16;99966.63;;;1.51;53.18
59272;BME280;45043;51.068;7.026;2022-11-20T03:19:17;99974.66;;;1.50;53.09
59272;BME280;45043;51.068;7.026;2022-11-20T03:22:18;99976.75;;;1.46;53.29
59272;BME280;45043;51.068;7.026;2022-11-20T03:25:18;99986.22;;;1.47;53.76
59272;BME280;45043;51.068;7.026;2022-11-20T03:28:19;99978.53;;;1.46;53.67
59272;BME280;45043;51.068;7.026;2022-11-20T03:31:24;99975.09;;;1.45;53.71
59272;BME280;45043;51.068;7.026;2022-11-20T03:34:25;99983.91;;;1.44;53.41
59272;BME280;45043;51.068;7.026;2022-11-20T03:37:26;99974.03;;;1.38;53.45
59272;BME280;45043;51.068;7.026;2022-11-20T03:40:26;99980.41;;;1.36;53.86
59272;BME280;45043;51.068;7.026;2022-11-20T03:43:26;99981.44;;;1.25;54.15
59272;BME280;45043;51.068;7.026;2022-11-20T03:46:28;99981.06;;;1.20;53.92
59272;BME280;45043;51.068;7.026;2022-11-20T03:49:28;99982.97;;;1.18;54.05
59272;BME280;45043;51.068;7.026;2022-11-20T03:52:29;99985.53;;;1.10;54.20
59272;BME280;45043;51.068;7.026;2022-11-20T03:55:29;99977.59;;;1.01;54.43
59272;BME280;45043;51.068;7.026;2022-11-20T03:58:30;99971.00;;;0.97;54.68
59272;BME280;45043;51.068;7.026;2022-11-20T04:01:32;99981.75;;;0.94;54.55
59272;BME280;45043;51.068;7.026;2022-11-20T04:04:33;99971.31;;;0.85;54.53
59272;BME280;45043;51.068;7.026;2022-11-20T04:07:34;99974.09;;;0.73;54.95
59272;BME280;45043;51.068;7.026;2022-11-20T04:10:34;99972.94;;;0.58;55.24
59272;BME280;45043;51.068;7.026;2022-11-20T04:13:35;99971.75;;;0.43;55.72
59272;BME280;45043;51.068;7.026;2022-11-20T04:16:36;99975.03;;;0.45;55.48
59272;BME280;45043;51.068;7.026;2022-11-20T04:19:36;99950.88;;;0.33;55.90
59272;BME280;45043;51.068;7.026;2022-11-20T04:22:36;99960.06;;;0.37;55.99
59272;BME280;45043;51.068;7.026;2022-11-20T04:25:37;99962.13;;;0.43;56.49
59272;BME280;45043;51.068;7.026;2022-11-20T04:28:38;99952.22;;;0.47;56.28
59272;BME280;45043;51.068;7.026;2022-11-20T04:31:39;99948.06;;;0.54;56.57
59272;BME280;45043;51.068;7.026;2022-11-20T04:34:39;99968.94;;;0.64;56.11
59272;BME280;45043;51.068;7.026;2022-11-20T04:37:39;99973.00;;;0.76;56.07
59272;BME280;45043;51.068;7.026;2022-11-20T04:40:40;99973.25;;;0.82;55.70
59272;BME280;45043;51.068;7.026;2022-11-20T04:43:40;99976.78;;;0.91;55.69
59272;BME280;45043;51.068;7.026;2022-11-20T04:46:41;99971.00;;;0.97;55.74
59272;BME280;45043;51.068;7.026;2022-11-20T04:49:42;99978.13;;;1.05;55.60
59272;BME280;45043;51.068;7.026;2022-11-20T04:52:42;99971.19;;;1.14;55.93
59272;BME280;45043;51.068;7.026;2022-11-20T04:55:43;99980.75;;;1.23;56.04
59272;BME280;45043;51.068;7.026;2022-11-20T04:58:43;99973.00;;;1.31;55.74
59272;BME280;45043;51.068;7.026;2022-11-20T05:01:44;99977.31;;;1.40;55.87
59272;BME280;45043;51.068;7.026;2022-11-20T05:04:44;99965.88;;;1.41;55.17
59272;BME280;45043;51.068;7.026;2022-11-20T05:07:45;99982.34;;;1.51;55.02
59272;BME280;45043;51.068;7.026;2022-11-20T05:10:46;99976.13;;;1.52;55.83
59272;BME280;45043;51.068;7.026;2022-11-20T05:13:47;99979.59;;;1.53;55.54
59272;BME280;45043;51.068;7.026;2022-11-20T05:16:47;99981.06;;;1.55;55.00
59272;BME280;45043;51.068;7.026;2022-11-20T05:19:48;99977.91;;;1.52;55.16
59272;BME280;45043;51.068;7.026;2022-11-20T05:22:48;99976.34;;;1.41;54.95
59272;BME280;45043;51.068;7.026;2022-11-20T05:25:52;99977.94;;;1.34;54.78
59272;BME280;45043;51.068;7.026;2022-11-20T05:28:52;99970.44;;;1.21;55.20
59272;BME280;45043;51.068;7.026;2022-11-20T05:31:52;99973.94;;;1.12;55.44
59272;BME280;45043;51.068;7.026;2022-11-20T05:34:53;99963.69;;;1.01;55.09
59272;BME280;45043;51.068;7.026;2022-11-20T05:37:53;99969.06;;;0.99;55.12
59272;BME280;45043;51.068;7.026;2022-11-20T05:40:54;99962.47;;;0.95;55.60
59272;BME280;45043;51.068;7.026;2022-11-20T05:43:55;99964.81;;;0.98;55.77
59272;BME280;45043;51.068;7.026;2022-11-20T05:46:56;99969.88;;;1.00;55.78
59272;BME280;45043;51.068;7.026;2022-11-20T05:49:56;99965.47;;;1.00;55.90
59272;BME280;45043;51.068;7.026;2022-11-20T05:53:00;99967.06;;;1.11;55.54
59272;BME280;45043;51.068;7.026;2022-11-20T05:56:03;99960.41;;;1.17;55.80
59272;BME280;45043;51.068;7.026;2022-11-20T05:59:04;99978.28;;;1.21;55.30
59272;BME280;45043;51.068;7.026;2022-11-20T06:02:04;99968.50;;;1.23;55.36
59272;BME280;45043;51.068;7.026;2022-11-20T06:05:05;99977.81;;;1.26;55.52
59272;BME280;45043;51.068;7.026;2022-11-20T06:08:06;99963.28;;;1.23;55.17
59272;BME280;45043;51.068;7.026;2022-11-20T06:11:08;99969.94;;;1.36;55.20
59272;BME280;45043;51.068;7.026;2022-11-20T06:14:08;99971.28;;;1.40;55.43
59272;BME280;45043;51.068;7.026;2022-11-20T06:17:09;99975.22;;;1.44;55.29
59272;BME280;45043;51.068;7.026;2022-11-20T06:20:10;99963.03;;;1.52;55.51
59272;BME280;45043;51.068;7.026;2022-11-20T06:23:10;99972.56;;;1.53;55.30
59272;BME280;45043;51.068;7.026;2022-11-20T06:26:13;99967.03;;;1.57;55.33
59272;BME280;45043;51.068;7.026;2022-11-20T06:29:13;99959.28;;;1.55;55.10
59272;BME280;45043;51.068;7.026;2022-11-20T06:32:14;99965.16;;;1.49;55.72
59272;BME280;45043;51.068;7.026;2022-11-20T06:35:14;99951.44;;;1.37;55.69
59272;BME280;45043;51.068;7.026;2022-11-20T06:38:15;99958.88;;;1.42;55.62
59272;BME280;45043;51.068;7.026;2022-11-20T06:41:17;99970.44;;;1.39;55.97
59272;BME280;45043;51.068;7.026;2022-11-20T06:44:18;99968.06;;;1.28;55.71
59272;BME280;45043;51.068;7.026;2022-11-20T06:47:18;99972.06;;;1.22;55.72
59272;BME280;45043;51.068;7.026;2022-11-20T06:50:18;99969.53;;;1.13;56.33
59272;BME280;45043;51.068;7.026;2022-11-20T06:53:19;99978.72;;;1.17;56.52
59272;BME280;45043;51.068;7.026;2022-11-20T06:56:19;99966.50;;;1.07;55.97
59272;BME280;45043;51.068;7.026;2022-11-20T06:59:20;99965.47;;;1.00;56.50
59272;BME280;45043;51.068;7.026;2022-11-20T07:02:20;99970.16;;;0.97;56.43
59272;BME280;45043;51.068;7.026;2022-11-20T07:05:20;99975.63;;;1.03;56.90
59272;BME280;45043;51.068;7.026;2022-11-20T07:08:21;99976.09;;;0.99;56.69
59272;BME280;45043;51.068;7.026;2022-11-20T07:11:21;99979.22;;;1.02;56.98
59272;BME280;45043;51.068;7.026;2022-11-20T07:14:22;99972.22;;;1.21;59.43
59272;BME280;45043;51.068;7.026;2022-11-20T07:17:22;99979.50;;;1.63;60.48
59272;BME280;45043;51.068;7.026;2022-11-20T07:20:23;99993.91;;;2.02;58.90
59272;BME280;45043;51.068;7.026;2022-11-20T07:23:24;99997.19;;;2.05;58.11
59272;BME280;45043;51.068;7.026;2022-11-20T07:26:24;99991.22;;;1.94;57.61
59272;BME280;45043;51.068;7.026;2022-11-20T07:29:28;100002.75;;;2.01;57.50
59272;BME280;45043;51.068;7.026;2022-11-20T07:32:28;99998.94;;;2.22;57.81
59272;BME280;45043;51.068;7.026;2022-11-20T07:35:28;100001.97;;;2.35;57.35
59272;BME280;45043;51.068;7.026;2022-11-20T07:38:29;100000.47;;;2.59;57.50
59272;BME280;45043;51.068;7.026;2022-11-20T07:41:29;100002.78;;;2.62;56.82
59272;BME280;45043;51.068;7.026;2022-11-20T07:44:30;99998.00;;;2.57;55.56
59272;BME280;45043;51.068;7.026;2022-11-20T07:47:36;100004.38;;;2.55;56.86
59272;BME280;45043;51.068;7.026;2022-11-20T07:50:37;99997.94;;;2.75;56.56
59272;BME280;45043;51.068;7.026;2022-11-20T07:53:37;99985.19;;;2.88;55.29
59272;BME280;45043;51.068;7.026;2022-11-20T07:56:37;99985.28;;;3.13;55.01
59272;BME280;45043;51.068;7.026;2022-11-20T07:59:38;99976.59;;;3.12;53.67
59272;BME280;45043;51.068;7.026;2022-11-20T08:02:42;99974.78;;;3.05;53.83
59272;BME280;45043;51.068;7.026;2022-11-20T08:05:42;99983.69;;;2.86;54.25
59272;BME280;45043;51.068;7.026;2022-11-20T08:08:42;99972.38;;;2.77;54.92
59272;BME280;45043;51.068;7.026;2022-11-20T08:11:43;99972.06;;;2.80;54.25
59272;BME280;45043;51.068;7.026;2022-11-20T08:15:03;99982.22;;;2.83;54.50
59272;BME280;45043;51.068;7.026;2022-11-20T08:18:11;99978.13;;;2.81;54.37
59272;BME280;45043;51.068;7.026;2022-11-20T08:21:11;99974.97;;;2.69;53.96
59272;BME280;45043;51.068;7.026;2022-11-20T08:24:12;99979.78;;;2.56;54.84
59272;BME280;45043;51.068;7.026;2022-11-20T08:27:13;99980.09;;;2.52;54.95
59272;BME280;45043;51.068;7.026;2022-11-20T08:30:13;99982.28;;;2.57;55.29
59272;BME280;45043;51.068;7.026;2022-11-20T08:33:14;99991.63;;;2.60;55.09
59272;BME280;45043;51.068;7.026;2022-11-20T08:36:14;99989.16;;;2.58;55.14
59272;BME280;45043;51.068;7.026;2022-11-20T08:39:14;99989.69;;;2.62;55.48
59272;BME280;45043;51.068;7.026;2022-11-20T08:42:15;99999.03;;;2.64;55.00
59272;BME280;45043;51.068;7.026;2022-11-20T08:45:16;99995.13;;;2.68;55.60
59272;BME280;45043;51.068;7.026;2022-11-20T08:48:17;99988.72;;;2.71;55.75
59272;BME280;45043;51.068;7.026;2022-11-20T08:51:18;99996.44;;;2.72;54.99
59272;BME280;45043;51.068;7.026;2022-11-20T08:54:19;99991.56;;;2.51;54.85
59272;BME280;45043;51.068;7.026;2022-11-20T08:57:22;99996.09;;;2.41;55.15
59272;BME280;45043;51.068;7.026;2022-11-20T09:00:22;100001.31;;;2.33;55.42
59272;BME280;45043;51.068;7.026;2022-11-20T09:03:22;99989.47;;;2.29;55.82
59272;BME280;45043;51.068;7.026;2022-11-20T09:06:23;99999.09;;;2.20;56.08
59272;BME280;45043;51.068;7.026;2022-11-20T09:09:23;99993.28;;;2.09;55.93
59272;BME280;45043;51.068;7.026;2022-11-20T09:12:24;99992.97;;;2.12;55.84
59272;BME280;45043;51.068;7.026;2022-11-20T09:15:25;100003.16;;;2.15;55.99
59272;BME280;45043;51.068;7.026;2022-11-20T09:18:26;99998.88;;;2.14;56.17
59272;BME280;45043;51.068;7.026;2022-11-20T09:21:27;99997.84;;;2.07;56.48
59272;BME280;45043;51.068;7.026;2022-11-20T09:24:27;99989.38;;;2.13;55.49
59272;BME280;45043;51.068;7.026;2022-11-20T09:27:28;99981.16;;;2.08;55.22
59272;BME280;45043;51.068;7.026;2022-11-20T09:30:28;99980.19;;;2.09;55.58
59272;BME280;45043;51.068;7.026;2022-11-20T09:33:29;99990.03;;;2.15;55.83
59272;BME280;45043;51.068;7.026;2022-11-20T09:36:29;99981.56;;;2.21;55.89
59272;BME280;45043;51.068;7.026;2022-11-20T09:39:30;99984.50;;;2.18;55.73
59272;BME280;45043;51.068;7.026;2022-11-20T09:55:10;99959.91;;;2.45;54.74
59272;BME280;45043;51.068;7.026;2022-11-20T09:58:35;99954.84;;;2.43;54.41
59272;BME280;45043;51.068;7.026;2022-11-20T10:01:40;99952.38;;;2.42;54.98
59272;BME280;45043;51.068;7.026;2022-11-20T10:04:51;99956.16;;;2.47;54.77
59272;BME280;45043;51.068;7.026;2022-11-20T10:08:15;99958.50;;;2.59;54.24
59272;BME280;45043;51.068;7.026;2022-11-20T10:14:59;99955.09;;;2.66;53.65
59272;BME280;45043;51.068;7.026;2022-11-20T10:28:01;99948.06;;;2.67;53.32
59272;BME280;45043;51.068;7.026;2022-11-20T10:38:14;99938.13;;;2.44;53.78
59272;BME280;45043;51.068;7.026;2022-11-20T10:41:37;99927.31;;;2.47;54.23
59272;BME280;45043;51.068;7.026;2022-11-20T10:44:47;99920.44;;;2.46;54.13
59272;BME280;45043;51.068;7.026;2022-11-20T10:54:53;99907.34;;;2.46;54.64
59272;BME280;45043;51.068;7.026;2022-11-20T10:58:07;99911.56;;;2.39;54.80
59272;BME280;45043;51.068;7.026;2022-11-20T11:01:19;99896.81;;;2.38;55.10
59272;BME280;45043;51.068;7.026;2022-11-20T11:07:35;99881.81;;;2.57;55.29
59272;BME280;45043;51.068;7.026;2022-11-20T11:10:40;99881.16;;;2.63;54.74
59272;BME280;45043;51.068;7.026;2022-11-20T11:13:42;99865.91;;;2.58;55.09
59272;BME280;45043;51.068;7.026;2022-11-20T11:16:54;99869.34;;;2.59;55.14
59272;BME280;45043;51.068;7.026;2022-11-20T11:23:28;99851.63;;;2.52;54.88
59272;BME280;45043;51.068;7.026;2022-11-20T11:26:30;99855.59;;;2.57;55.50
59272;BME280;45043;51.068;7.026;2022-11-20T11:29:31;99853.44;;;2.52;55.04
59272;BME280;45043;51.068;7.026;2022-11-20T11:32:31;99843.75;;;2.44;55.84
59272;BME280;45043;51.068;7.026;2022-11-20T11:35:33;99846.84;;;2.40;55.32
59272;BME280;45043;51.068;7.026;2022-11-20T11:38:38;99843.41;;;2.39;56.42
59272;BME280;45043;51.068;7.026;2022-11-20T11:41:40;99847.03;;;2.46;56.12
59272;BME280;45043;51.068;7.026;2022-11-20T11:44:46;99828.88;;;2.53;55.42
59272;BME280;45043;51.068;7.026;2022-11-20T11:48:13;99821.47;;;2.48;56.08
59272;BME280;45043;51.068;7.026;2022-11-20T11:51:20;99818.38;;;2.53;55.96
59272;BME280;45043;51.068;7.026;2022-11-20T11:54:24;99813.00;;;2.63;55.56
59272;BME280;45043;51.068;7.026;2022-11-20T12:04:42;99802.16;;;2.49;56.43
59272;BME280;45043;51.068;7.026;2022-11-20T12:10:56;99782.81;;;2.42;56.93
59272;BME280;45043;51.068;7.026;2022-11-20T12:14:40;99783.75;;;2.41;56.23
59272;BME280;45043;51.068;7.026;2022-11-20T12:17:41;99770.34;;;2.44;56.47
59272;BME280;45043;51.068;7.026;2022-11-20T12:21:02;99775.09;;;2.49;56.43
59272;BME280;45043;51.068;7.026;2022-11-20T12:31:19;99777.56;;;2.42;56.68
59272;BME280;45043;51.068;7.026;2022-11-20T12:34:35;99758.72;;;2.39;57.04
59272;BME280;45043;51.068;7.026;2022-11-20T12:48:23;99748.06;;;2.48;56.73
59272;BME280;45043;51.068;7.026;2022-11-20T12:54:46;99739.72;;;2.53;56.95
59272;BME280;45043;51.068;7.026;2022-11-20T12:58:17;99735.13;;;2.55;57.11
59272;BME280;45043;51.068;7.026;2022-11-20T13:08:01;99725.94;;;2.43;57.94
59272;BME280;45043;51.068;7.026;2022-11-20T13:14:24;99707.44;;;2.52;57.63
59272;BME280;45043;51.068;7.026;2022-11-20T13:20:51;99685.81;;;2.59;57.64
59272;BME280;45043;51.068;7.026;2022-11-20T13:23:51;99684.34;;;2.64;57.94
59272;BME280;45043;51.068;7.026;2022-11-20T13:30:17;99671.03;;;2.82;57.40
59272;BME280;45043;51.068;7.026;2022-11-20T13:33:49;99675.94;;;2.85;57.44
59272;BME280;45043;51.068;7.026;2022-11-20T13:36:54;99662.00;;;2.93;57.54
59272;BME280;45043;51.068;7.026;2022-11-20T13:43:19;99647.09;;;3.02;57.42
59272;BME280;45043;51.068;7.026;2022-11-20T13:46:21;99648.06;;;3.09;57.47
59272;BME280;45043;51.068;7.026;2022-11-20T13:49:39;99638.41;;;3.01;57.16
59272;BME280;45043;51.068;7.026;2022-11-20T13:53:12;99639.03;;;3.03;57.00
59272;BME280;45043;51.068;7.026;2022-11-20T14:03:18;99613.94;;;3.00;57.39
59272;BME280;45043;51.068;7.026;2022-11-20T14:06:27;99609.50;;;3.09;57.31
59272;BME280;45043;51.068;7.026;2022-11-20T14:09:32;99607.38;;;3.13;57.46
59272;BME280;45043;51.068;7.026;2022-11-20T14:12:34;99601.78;;;3.08;57.80
59272;BME280;45043;51.068;7.026;2022-11-20T14:15:34;99596.91;;;3.05;57.30
59272;BME280;45043;51.068;7.026;2022-11-20T14:18:35;99588.41;;;2.94;57.66
59272;BME280;45043;51.068;7.026;2022-11-20T14:21:35;99579.56;;;2.87;57.86
59272;BME280;45043;51.068;7.026;2022-11-20T14:24:37;99585.78;;;2.94;58.12
59272;BME280;45043;51.068;7.026;2022-11-20T14:27:39;99575.25;;;3.03;57.95
59272;BME280;45043;51.068;7.026;2022-11-20T14:30:46;99573.44;;;3.03;57.75
59272;BME280;45043;51.068;7.026;2022-11-20T14:33:47;99571.00;;;3.02;58.01
59272;BME280;45043;51.068;7.026;2022-11-20T14:36:48;99560.16;;;3.05;58.30
59272;BME280;45043;51.068;7.026;2022-11-20T14:39:53;99554.91;;;3.05;58.28
59272;BME280;45043;51.068;7.026;2022-11-20T14:42:55;99551.16;;;2.99;57.84
59272;BME280;45043;51.068;7.026;2022-11-20T14:45:59;99554.28;;;2.94;58.32
59272;BME280;45043;51.068;7.026;2022-11-20T14:49:02;99548.34;;;3.00;57.97
59272;BME280;45043;51.068;7.026;2022-11-20T14:52:13;99545.44;;;2.95;58.60
59272;BME280;45043;51.068;7.026;2022-11-20T14:55:37;99541.69;;;2.90;58.25
59272;BME280;45043;51.068;7.026;2022-11-20T14:58:38;99531.19;;;2.90;58.54
59272;BME280;45043;51.068;7.026;2022-11-20T15:01:38;99516.94;;;2.84;58.84
59272;BME280;45043;51.068;7.026;2022-11-20T15:07:51;99522.84;;;2.86;58.55
59272;BME280;45043;51.068;7.026;2022-11-20T15:10:53;99530.06;;;2.84;58.99
59272;BME280;45043;51.068;7.026;2022-11-20T15:13:54;99525.97;;;2.82;59.26
59272;BME280;45043;51.068;7.026;2022-11-20T15:16:58;99514.97;;;2.86;59.77
59272;BME280;45043;51.068;7.026;2022-11-20T15:20:00;99512.03;;;2.81;59.49
59272;BME280;45043;51.068;7.026;2022-11-20T15:23:09;99505.78;;;2.82;60.06
59272;BME280;45043;51.068;7.026;2022-11-20T15:26:12;99501.38;;;2.83;59.96
59272;BME280;45043;51.068;7.026;2022-11-20T15:29:15;99494.47;;;2.82;59.89
59272;BME280;45043;51.068;7.026;2022-11-20T15:32:21;99504.50;;;2.78;60.57
59272;BME280;45043;51.068;7.026;2022-11-20T15:35:21;99481.25;;;2.75;59.97
59272;BME280;45043;51.068;7.026;2022-11-20T15:38:22;99484.81;;;2.82;60.26
59272;BME280;45043;51.068;7.026;2022-11-20T15:41:23;99483.06;;;2.66;61.28
59272;BME280;45043;51.068;7.026;2022-11-20T15:44:27;99488.50;;;2.65;61.37
59272;BME280;45043;51.068;7.026;2022-11-20T15:47:33;99481.78;;;2.62;62.00
59272;BME280;45043;51.068;7.026;2022-11-20T15:50:43;99476.38;;;2.56;62.57
59272;BME280;45043;51.068;7.026;2022-11-20T15:53:48;99465.75;;;2.49;62.80
59272;BME280;45043;51.068;7.026;2022-11-20T15:56:49;99462.66;;;2.45;63.16
59272;BME280;45043;51.068;7.026;2022-11-20T15:59:52;99460.97;;;2.52;63.18
59272;BME280;45043;51.068;7.026;2022-11-20T16:02:52;99445.47;;;2.43;63.65
59272;BME280;45043;51.068;7.026;2022-11-20T16:05:53;99456.09;;;2.49;64.37
59272;BME280;45043;51.068;7.026;2022-11-20T16:08:53;99454.28;;;2.50;64.85
59272;BME280;45043;51.068;7.026;2022-11-20T16:11:53;99448.88;;;2.51;64.97
59272;BME280;45043;51.068;7.026;2022-11-20T16:14:54;99446.22;;;2.60;64.85
59272;BME280;45043;51.068;7.026;2022-11-20T16:18:18;99437.00;;;2.64;64.76
59272;BME280;45043;51.068;7.026;2022-11-20T16:21:19;99428.84;;;2.59;65.68
59272;BME280;45043;51.068;7.026;2022-11-20T16:24:20;99428.03;;;2.58;65.65
59272;BME280;45043;51.068;7.026;2022-11-20T16:27:20;99414.75;;;2.60;65.67
59272;BME280;45043;51.068;7.026;2022-11-20T16:30:20;99420.34;;;2.57;66.44
59272;BME280;45043;51.068;7.026;2022-11-20T16:33:21;99421.97;;;2.58;66.39
59272;BME280;45043;51.068;7.026;2022-11-20T16:36:23;99410.34;;;2.60;66.50
59272;BME280;45043;51.068;7.026;2022-11-20T16:39:24;99406.72;;;2.61;66.64
59272;BME280;45043;51.068;7.026;2022-11-20T16:42:25;99399.19;;;2.58;67.08
59272;BME280;45043;51.068;7.026;2022-11-20T16:45:25;99406.38;;;2.64;67.55
59272;BME280;45043;51.068;7.026;2022-11-20T16:48:26;99391.94;;;2.68;67.65
59272;BME280;45043;51.068;7.026;2022-11-20T16:51:29;99387.50;;;2.69;67.55
59272;BME280;45043;51.068;7.026;2022-11-20T16:54:30;99388.66;;;2.66;68.28
59272;BME280;45043;51.068;7.026;2022-11-20T16:57:31;99384.22;;;2.67;68.47
59272;BME280;45043;51.068;7.026;2022-11-20T17:00:38;99377.03;;;2.69;67.80
59272;BME280;45043;51.068;7.026;2022-11-20T17:03:40;99370.16;;;2.68;68.53
59272;BME280;45043;51.068;7.026;2022-11-20T17:06:42;99368.16;;;2.70;68.35
59272;BME280;45043;51.068;7.026;2022-11-20T17:09:47;99364.53;;;2.71;69.00
59272;BME280;45043;51.068;7.026;2022-11-20T17:12:47;99348.22;;;2.61;69.02
59272;BME280;45043;51.068;7.026;2022-11-20T17:15:48;99341.00;;;2.63;68.89
59272;BME280;45043;51.068;7.026;2022-11-20T17:18:49;99343.28;;;2.66;68.88
59272;BME280;45043;51.068;7.026;2022-11-20T17:21:49;99335.88;;;2.69;69.51
59272;BME280;45043;51.068;7.026;2022-11-20T17:24:50;99326.19;;;2.70;69.45
59272;BME280;45043;51.068;7.026;2022-11-20T17:27:50;99314.72;;;2.71;69.51
59272;BME280;45043;51.068;7.026;2022-11-20T17:30:50;99299.97;;;2.70;69.62
59272;BME280;45043;51.068;7.026;2022-11-20T17:33:51;99304.22;;;2.71;69.51
59272;BME280;45043;51.068;7.026;2022-11-20T17:36:52;99284.44;;;2.68;70.01
59272;BME280;45043;51.068;7.026;2022-11-20T17:39:53;99276.91;;;2.65;69.94
59272;BME280;45043;51.068;7.026;2022-11-20T17:42:53;99265.25;;;2.68;70.20
59272;BME280;45043;51.068;7.026;2022-11-20T17:45:54;99269.03;;;2.65;70.26
59272;BME280;45043;51.068;7.026;2022-11-20T17:48:55;99254.78;;;2.68;70.60
59272;BME280;45043;51.068;7.026;2022-11-20T17:51:56;99252.31;;;2.66;70.51
59272;BME280;45043;51.068;7.026;2022-11-20T17:54:56;99227.63;;;2.61;70.73
59272;BME280;45043;51.068;7.026;2022-11-20T17:58:00;99235.88;;;2.72;70.43
59272;BME280;45043;51.068;7.026;2022-11-20T18:01:06;99232.16;;;2.67;70.88
59272;BME280;45043;51.068;7.026;2022-11-20T18:04:07;99225.28;;;2.66;71.10
59272;BME280;45043;51.068;7.026;2022-11-20T18:07:08;99214.44;;;2.69;71.07
59272;BME280;45043;51.068;7.026;2022-11-20T18:10:08;99199.72;;;2.68;70.98
59272;BME280;45043;51.068;7.026;2022-11-20T18:13:09;99189.84;;;2.70;71.04